• Join FlightAware (Why Join?)
  • Login
  • US Flag 
02:44AM EDT


 

Airport Tracker/Info


-or-


 

Live Flight TrackerFlight Track Log ✈ N658DS ✈ 21-Jun-2013 ✈ KTLH - KNEW

Flight Track Log - Related Links

Times and Time Zones

All times are in EDT time to prevent confusion due to time zone crossing. See the N658DS flight status page for this flight to view local times or setup timezone preferences in your user account.

Time Position Orientation Groundspeed Altitude Reporting Facility
EDT Latitude Longitude Course Direction KTS MPH feet Rate Location/Type
07:37PM 30.3210 -85.9682 267° West  Level Estimated
07:38PM 30.3190 -86.0049 266° West  Level Estimated
07:39PM 30.3171 -86.0416 266° West  Level Estimated
07:40PM 30.3151 -86.0783 266° West  Level Estimated
07:41PM 30.3131 -86.1151 266° West  Level Estimated
07:42PM 30.3111 -86.1518 266° West  Level Estimated
07:43PM 30.3092 -86.1885 266° West  Level Estimated
07:44PM 30.3071 -86.2252 266° West  Level Estimated
07:45PM 30.3051 -86.2619 266° West  Level Estimated
07:46PM 30.3031 -86.2986 266° West  Level Estimated
07:47PM 30.3010 -86.3354 266° West  Level Estimated
07:48PM 30.2990 -86.3721 266° West  Level Estimated
07:49PM 30.2969 -86.4088 266° West  Level Estimated
07:50PM 30.2948 -86.4455 266° West  Level Estimated
07:51PM 30.2927 -86.4822 266° West  Level Estimated
07:52PM 30.2906 -86.5189 266° West  Level Estimated
07:53PM 30.2885 -86.5556 266° West  Level Estimated
07:54PM 30.2864 -86.5923 266° West  Level Estimated
07:54PM 30.8683 -86.5953 266° West 112 129 9,000  Level Jacksonville Center
07:55PM 30.2843 -86.6290 266° West  Level Estimated
07:56PM 30.2821 -86.6657 266° West  Level Estimated
07:56PM 30.8792 -86.6467 284° West 116 133 9,300  Level Jacksonville Center
07:57PM 30.2800 -86.7024 266° West  Level Estimated
07:57PM 30.8842 -86.6881 278° West 112 129 9,600  Level Jacksonville Center
07:58PM 30.2778 -86.7391 266° West  Level Estimated
07:58PM 30.8856 -86.7194 273° West 112 129 9,900  Level Jacksonville Center
07:59PM 30.2757 -86.7758 266° West  Level Estimated
07:59PM 30.8844 -86.7558 268° West 107 123 10,400  Level Jacksonville Center
08:00PM 30.2735 -86.8125 266° West  Level Estimated
08:00PM 30.8944 -86.7706 308° West 111 128 10,500  Level Jacksonville Center
08:01PM 30.8994 -86.8097 278° West 118 136 10,700 60 Climbing Jacksonville Center
08:02PM 30.9086 -86.8511 284° West 123 142 10,700 -60 Level Jacksonville Center
08:03PM 30.9264 -86.8833 303° West 123 142 10,600 -60 Descending Jacksonville Center
08:04PM 30.9461 -86.9156 306° West 123 142 10,600 -60 Level Jacksonville Center
08:05PM 30.9661 -86.9481 306° West 123 142 10,500  Descending Jacksonville Center
08:06PM 30.9858 -86.9781 307° West 123 142 10,600  Climbing Jacksonville Center
08:07PM 31.0081 -87.0081 311° West 118 136 10,500  Descending Jacksonville Center
08:08PM 31.0278 -87.0381 307° West 118 136 10,600  Climbing Jacksonville Center
08:09PM 31.0456 -87.0728 301° West 118 136 10,500 -60 Descending Jacksonville Center
08:10PM 31.0675 -87.1028 311° West 124 143 10,500  Level Jacksonville Center
08:11PM 31.0853 -87.1350 303° West 124 143 10,500  Level Jacksonville Center
08:12PM 31.1028 -87.1675 302° West 124 143 10,500 -60 Level Jacksonville Center
08:13PM 31.1206 -87.1997 303° West 124 143 10,400 -240 Descending Jacksonville Center
08:14PM 31.1211 -87.2483 271° West 131 151 10,100 -300 Descending Jacksonville Center
08:15PM 31.1217 -87.2919 271° West 136 157 9,900 60 Descending Jacksonville Center
08:17PM 31.0925 -87.3675 246° West 132 152 10,300 120 Climbing Houston Center
08:18PM 31.0653 -87.3947 221° Southwest 129 148 10,300  Level Houston Center
08:19PM 31.0369 -87.4183 216° Southwest 125 144 10,400 60 Climbing Houston Center
08:20PM 31.0153 -87.4497 231° Southwest 128 147 10,500 60 Climbing Houston Center
08:21PM 30.9958 -87.4900 241° Southwest 121 139 10,600  Climbing Houston Center
08:22PM 30.9725 -87.5233 231° Southwest 130 150 10,600  Level Houston Center
08:23PM 30.9519 -87.5589 236° Southwest 132 152 10,600  Level Houston Center
08:24PM 30.9353 -87.5939 241° Southwest 127 146 10,600  Level Houston Center
08:25PM 30.9186 -87.6311 242° Southwest 128 147 10,700  Climbing Houston Center
08:26PM 30.9031 -87.6681 244° Southwest 128 147 10,600 -60 Descending Houston Center
08:27PM 30.8856 -87.7072 243° Southwest 134 154 10,600  Level Houston Center
08:28PM 30.8672 -87.7525 245° Southwest 130 150 10,600  Level Houston Center
08:29PM 30.8525 -87.7917 246° West 132 152 10,700  Climbing Houston Center
08:30PM 30.8378 -87.8308 246° West 131 151 10,600 -60 Descending Houston Center
08:31PM 30.8214 -87.8711 245° Southwest 136 157 10,600  Level Houston Center
08:32PM 30.8053 -87.9106 245° Southwest 136 157 10,600  Level Houston Center
08:33PM 30.7886 -87.9494 243° Southwest 134 154 10,600  Level Houston Center
08:34PM 30.7744 -87.9892 247° West 133 153 10,600  Level Houston Center
08:35PM 30.7564 -88.0392 247° West 138 159 10,600  Level Houston Center
08:36PM 30.7411 -88.0783 246° West 133 153 10,600  Level Houston Center
08:37PM 30.7256 -88.1164 245° Southwest 130 150 10,600  Level Houston Center
08:38PM 30.7106 -88.1539 245° Southwest 127 146 10,600  Level Houston Center
08:39PM 30.6944 -88.1925 244° Southwest 131 151 10,600 -60 Level Houston Center
08:40PM 30.6761 -88.2322 242° Southwest 136 157 10,500 -60 Descending Houston Center
08:41PM 30.6472 -88.2603 220° Southwest 136 157 10,500  Level Houston Center
08:42PM 30.6097 -88.2886 213° Southwest 134 154 10,600  Climbing Houston Center
08:43PM 30.5797 -88.3172 219° Southwest 136 157 10,500 -60 Descending Houston Center
08:44PM 30.5561 -88.3522 232° Southwest 136 157 10,500  Level Houston Center
08:46PM 30.5300 -88.3853 227° Southwest 138 159 10,500  Level Houston Center
08:47PM 30.5103 -88.4219 238° Southwest 136 157 10,500  Level Houston Center
08:48PM 30.4964 -88.4628 248° West 134 154 10,500  Level Houston Center
08:49PM 30.4864 -88.5039 254° West 133 153 10,500  Level Houston Center
08:50PM 30.4792 -88.5547 261° West 132 152 10,600  Climbing Houston Center
08:51PM 30.4744 -88.5967 263° West 131 151 10,600  Level Houston Center
08:52PM 30.4739 -88.6386 269° West 130 150 10,600 120 Level Houston Center
08:53PM 30.4683 -88.6800 261° West 130 150 10,900 180 Climbing Houston Center
08:54PM 30.4608 -88.7169 257° West 121 139 11,000  Climbing Houston Center
08:55PM 30.4578 -88.7581 265° West 125 144 11,000 -120 Level Houston Center
08:56PM 30.4625 -88.8008 277° West 132 152 10,800 -240 Descending Houston Center
08:57PM 30.4478 -88.8436 248° West 144 166 10,600 -120 Descending Houston Center
08:58PM 30.4278 -88.8925 245° Southwest 143 165 10,600  Level Houston Center
08:59PM 30.4147 -88.9336 250° West 137 158 10,600  Level Houston Center
09:00PM 30.4028 -88.9742 251° West 136 157 10,600  Level Houston Center
09:01PM 30.3892 -89.0144 249° West 135 155 10,600 -60 Level Houston Center
09:02PM 30.3767 -89.0542 250° West 133 153 10,500 -60 Descending Houston Center
09:03PM 30.3633 -89.0947 249° West 133 153 10,500  Level Houston Center
09:04PM 30.3483 -89.1425 250° West 132 152 10,500  Level Houston Center
09:05PM 30.3342 -89.1817 247° West 132 152 10,500  Level Houston Center
09:06PM 30.3200 -89.2200 247° West 130 150 10,500  Level Houston Center
09:07PM 30.3058 -89.2611 248° West 135 155 10,500  Level Houston Center
09:08PM 30.2925 -89.3036 250° West 138 159 10,500  Level Houston Center
09:09PM 30.2781 -89.3436 247° West 136 157 10,500  Level Houston Center
09:10PM 30.2647 -89.3839 249° West 134 154 10,500  Level Houston Center
09:11PM 30.2506 -89.4250 248° West 136 157 10,500  Level Houston Center
09:12PM 30.2358 -89.4658 247° West 137 158 10,500 -180 Level Houston Center
09:13PM 30.2200 -89.5158 250° West 137 158 10,200 -540 Descending Houston Center
09:14PM 30.2058 -89.5586 249° West 140 161 9,400 -840 Descending Houston Center
09:15PM 30.1947 -89.6014 253° West 140 161 8,600 -840 Descending Houston Center
09:16PM 30.1839 -89.6467 255° West 135 155 7,800 -780 Descending Houston Center
09:17PM 30.1708 -89.6856 249° West 131 151 7,100 -720 Descending Houston Center
09:18PM 30.1594 -89.7222 250° West 125 144 6,400 -660 Descending Houston Center
09:19PM 30.1431 -89.7603 244° Southwest 133 153 5,800 -720 Descending Houston Center
09:20PM 30.1286 -89.8006 247° West 145 167 5,100 -960 Descending Houston Center
09:21PM 30.1117 -89.8494 248° West 147 169 4,000 -1,140 Descending Houston Center
09:22PM 30.0942 -89.8886 243° Southwest 133 153 2,800 -1,140 Descending Houston Center
09:23PM 30.0783 -89.9183 238° Southwest 121 139 1,800 -840 Descending Houston Center
09:24PM 30.0606 -89.9503 237° Southwest 112 129 1,300 -420 Descending Houston Center
09:25PM 30.0617 -89.9861 272° West 116 133 1,000 -240 Descending Houston Center
09:26PM 30.0667 -90.0125 282° West 85 98 900 -360 Descending Houston Center
09:28PM 30.0528 -90.0308 229° Southwest 91 105 300 -480 Descending Houston Center